Time;durP1;ratioP1;P1;durP2;ratioP2;P2;SDS_P1;SDS_P2;PMS_P1;PMS_P2;Temp;Humidity;BMP_temperature;BMP_pressure;BME280_temperature;BME280_humidity;BME280_pressure;Samples;Min_cycle;Max_cycle;Signal;HPM_P1;HPM_P2
2023/12/30 00:00:24;;;;;;;9.50;6.45;;;;;;;15.94;55.90;100973.84;4968071;28;20423;-43
2023/12/30 00:02:51;;;;;;;11.60;6.78;;;;;;;15.93;56.03;100975.69;4966609;28;20049;-43
2023/12/30 00:05:17;;;;;;;9.30;6.75;;;;;;;15.93;55.28;100978.34;4966969;28;20085;-43
2023/12/30 00:07:44;;;;;;;11.10;6.85;;;;;;;15.93;55.11;100974.84;4969518;28;20074;-42
2023/12/30 00:10:11;;;;;;;11.10;6.88;;;;;;;15.91;55.35;100974.13;4968254;28;20102;-43
2023/12/30 00:12:38;;;;;;;9.38;6.43;;;;;;;15.91;56.02;100974.94;4966658;28;20078;-43
2023/12/30 00:15:05;;;;;;;11.85;7.38;;;;;;;15.91;55.67;100984.81;4968773;28;20153;-44
2023/12/30 00:17:32;;;;;;;9.73;5.65;;;;;;;15.90;56.00;100991.13;4969023;28;20051;-43
2023/12/30 00:19:58;;;;;;;9.93;5.90;;;;;;;15.90;56.10;100994.66;4964403;28;20055;-43
2023/12/30 00:22:25;;;;;;;8.30;5.97;;;;;;;15.92;55.83;100997.19;4969887;28;20047;-43
2023/12/30 00:24:52;;;;;;;9.05;5.18;;;;;;;15.96;55.72;100993.25;4968151;28;20449;-43
2023/12/30 00:27:19;;;;;;;9.88;5.75;;;;;;;16.09;55.57;100999.22;4966665;28;20473;-43
2023/12/30 00:29:45;;;;;;;8.15;5.75;;;;;;;16.24;54.48;100999.66;4967138;28;20046;-43
2023/12/30 00:32:12;;;;;;;9.75;6.07;;;;;;;16.38;54.55;100993.06;4966835;28;20166;-42
2023/12/30 00:34:39;;;;;;;8.93;5.45;;;;;;;16.51;54.36;100996.31;4965738;28;20043;-42
2023/12/30 00:37:05;;;;;;;8.55;5.45;;;;;;;16.66;54.28;100994.91;4969661;28;20047;-42
2023/12/30 00:39:32;;;;;;;7.75;5.50;;;;;;;16.80;53.78;100992.81;4966895;28;20050;-42
2023/12/30 00:41:58;;;;;;;9.50;5.25;;;;;;;16.92;54.19;100992.53;4966412;28;20051;-41
2023/12/30 00:44:25;;;;;;;7.55;5.22;;;;;;;17.05;53.98;100997.59;4965890;28;20055;-42
2023/12/30 00:46:52;;;;;;;8.18;4.72;;;;;;;17.15;53.30;100998.41;4965805;28;20130;-42
2023/12/30 00:49:18;;;;;;;8.27;5.35;;;;;;;17.23;53.05;100995.00;4964323;28;20078;-42
2023/12/30 00:51:45;;;;;;;7.47;4.75;;;;;;;17.28;52.60;101004.28;4967465;28;20166;-42
2023/12/30 00:54:12;;;;;;;7.93;4.63;;;;;;;17.34;52.85;101002.06;4966540;28;20054;-42
2023/12/30 00:56:38;;;;;;;7.93;4.95;;;;;;;17.36;52.69;101008.09;4968122;28;20438;-40
2023/12/30 00:59:05;;;;;;;7.53;4.72;;;;;;;17.35;52.88;101011.78;4966223;28;20051;-42
2023/12/30 01:01:33;;;;;;;7.78;4.65;;;;;;;17.32;52.65;101020.09;4967422;28;20105;-42
2023/12/30 01:03:59;;;;;;;6.53;4.20;;;;;;;17.28;53.08;101032.91;4966721;28;20446;-42
2023/12/30 01:06:26;;;;;;;7.03;4.57;;;;;;;17.23;52.32;101033.34;4967084;28;20131;-43
2023/12/30 01:08:53;;;;;;;10.23;5.28;;;;;;;17.22;53.24;101037.03;4966482;28;20046;-43
2023/12/30 01:11:19;;;;;;;7.20;4.32;;;;;;;17.19;52.89;101020.41;4967176;28;20050;-43
2023/12/30 01:13:46;;;;;;;8.35;4.85;;;;;;;17.17;52.58;101025.91;4970168;28;20065;-43
2023/12/30 01:16:13;;;;;;;8.32;4.82;;;;;;;17.15;52.90;101024.34;4970125;28;20074;-43
2023/12/30 01:18:40;;;;;;;5.88;4.28;;;;;;;17.12;53.05;101030.84;4966366;28;20058;-43
2023/12/30 01:21:07;;;;;;;5.90;4.07;;;;;;;17.10;53.14;101027.47;4963922;28;20347;-43
2023/12/30 01:23:34;;;;;;;6.20;4.10;;;;;;;17.08;53.22;101018.72;4967352;28;20336;-42
2023/12/30 01:26:01;;;;;;;7.40;5.03;;;;;;;17.07;52.57;101021.56;4967061;28;20051;-43
2023/12/30 01:28:27;;;;;;;7.07;3.70;;;;;;;17.05;52.58;101024.38;4969201;28;20430;-43
2023/12/30 01:30:54;;;;;;;5.57;3.72;;;;;;;17.00;53.39;101022.13;4970059;28;20371;-43
2023/12/30 01:33:21;;;;;;;6.18;4.05;;;;;;;16.97;52.89;101030.44;4965102;28;20413;-43
2023/12/30 01:35:48;;;;;;;6.20;3.90;;;;;;;16.91;52.76;101036.34;4966788;28;20134;-43
2023/12/30 01:38:14;;;;;;;6.53;4.00;;;;;;;16.86;53.02;101046.66;4966498;28;20349;-43
2023/12/30 01:40:41;;;;;;;6.55;4.05;;;;;;;16.81;53.17;101046.22;4968362;28;20517;-43
2023/12/30 01:43:30;;;;;;;6.03;3.80;;;;;;;16.74;53.47;101047.78;4966881;28;20481;-43
2023/12/30 01:46:06;;;;;;;6.43;3.78;;;;;;;16.70;53.78;101049.00;4966755;28;20074;-43
2023/12/30 01:48:33;;;;;;;5.70;4.10;;;;;;;16.66;53.76;101053.78;4967976;28;20391;-43
2023/12/30 01:51:02;;;;;;;5.25;3.53;;;;;;;16.60;53.26;101056.16;4969444;28;20057;-43
2023/12/30 01:53:32;;;;;;;6.47;4.35;;;;;;;16.53;53.72;101053.22;4964425;28;20052;-42
2023/12/30 01:56:00;;;;;;;8.13;4.38;;;;;;;16.49;54.37;101059.84;4967993;28;20061;-43
2023/12/30 01:58:27;;;;;;;7.20;3.72;;;;;;;16.44;54.61;101065.59;4966625;28;20074;-43
2023/12/30 02:00:55;;;;;;;6.53;4.10;;;;;;;16.40;54.42;101056.16;4969105;28;20140;-43
2023/12/30 02:03:22;;;;;;;6.22;3.80;;;;;;;16.35;54.05;101057.53;4966860;28;20054;-42
2023/12/30 02:05:49;;;;;;;6.38;4.18;;;;;;;16.31;54.59;101061.47;4967035;28;20059;-43
2023/12/30 02:08:18;;;;;;;5.22;3.28;;;;;;;16.27;54.45;101069.75;4966331;28;20434;-43
2023/12/30 02:10:45;;;;;;;7.38;3.90;;;;;;;16.28;55.01;101082.19;4965720;28;20138;-42
2023/12/30 02:13:12;;;;;;;5.30;3.90;;;;;;;16.32;54.19;101079.22;4966291;28;20051;-43
2023/12/30 02:15:38;;;;;;;6.47;3.25;;;;;;;16.37;54.38;101072.47;4964852;28;20055;-43
2023/12/30 02:18:05;;;;;;;7.75;3.60;;;;;;;16.45;54.49;101077.16;4966403;28;20050;-42
2023/12/30 02:20:33;;;;;;;4.93;3.28;;;;;;;16.52;54.29;101072.91;4968270;28;20195;-43
2023/12/30 02:23:00;;;;;;;5.38;3.13;;;;;;;16.59;54.43;101079.41;4965668;28;20342;-43
2023/12/30 02:25:27;;;;;;;5.35;3.25;;;;;;;16.68;53.70;101075.06;4965698;28;20051;-43
2023/12/30 02:27:53;;;;;;;5.80;3.58;;;;;;;16.76;53.83;101081.47;4965127;28;20731;-43
2023/12/30 02:30:23;;;;;;;6.18;3.13;;;;;;;16.81;53.34;101074.84;4966772;28;20347;-43
2023/12/30 02:32:50;;;;;;;4.68;2.75;;;;;;;16.85;53.55;101078.94;4965718;28;20050;-43
2023/12/30 02:35:17;;;;;;;5.15;3.22;;;;;;;16.86;53.74;101081.44;4967031;28;20077;-43
2023/12/30 02:37:45;;;;;;;7.63;3.88;;;;;;;16.88;53.71;101092.84;4961397;28;20411;-43
2023/12/30 02:40:11;;;;;;;5.13;2.88;;;;;;;16.88;53.37;101100.03;4965947;28;20046;-43
2023/12/30 02:42:39;;;;;;;4.38;2.85;;;;;;;16.89;53.37;101093.72;4966954;28;20452;-43
2023/12/30 02:45:06;;;;;;;5.45;3.00;;;;;;;16.90;53.22;101090.06;4967640;28;20050;-43
2023/12/30 02:47:33;;;;;;;5.40;3.13;;;;;;;16.90;53.21;101106.13;4963537;28;20039;-43
2023/12/30 02:50:00;;;;;;;4.53;2.97;;;;;;;16.90;52.82;101104.28;4970938;28;20055;-43
2023/12/30 02:52:26;;;;;;;4.68;2.90;;;;;;;16.90;53.45;101098.09;4968017;28;20117;-43
2023/12/30 02:54:53;;;;;;;3.63;2.47;;;;;;;16.91;52.95;101097.09;4967027;28;20255;-43
2023/12/30 02:57:20;;;;;;;5.53;2.67;;;;;;;16.91;53.12;101099.75;4966540;28;20046;-44
2023/12/30 02:59:46;;;;;;;4.35;2.60;;;;;;;16.91;52.69;101100.59;4964823;28;20078;-43
2023/12/30 03:02:13;;;;;;;4.32;2.80;;;;;;;16.91;53.11;101108.63;4968233;28;20358;-43
2023/12/30 03:04:39;;;;;;;4.55;2.97;;;;;;;16.90;53.04;101111.47;4967558;28;20431;-43
2023/12/30 03:07:07;;;;;;;3.15;2.58;;;;;;;16.89;52.80;101109.78;4964784;28;20054;-43
2023/12/30 03:09:34;;;;;;;4.47;2.63;;;;;;;16.89;53.17;101109.78;4962753;28;20394;-43
2023/12/30 03:12:02;;;;;;;3.90;2.65;;;;;;;16.89;52.89;101110.63;4969481;28;20084;-43
2023/12/30 03:14:28;;;;;;;4.10;2.65;;;;;;;16.90;53.00;101100.75;4964507;28;20050;-42
2023/12/30 03:16:55;;;;;;;4.75;2.90;;;;;;;16.90;52.52;101112.31;4966400;28;20054;-42
2023/12/30 03:19:22;;;;;;;4.00;2.70;;;;;;;16.91;52.95;101110.47;4964461;28;20051;-42
2023/12/30 03:21:49;;;;;;;4.00;2.60;;;;;;;16.91;52.48;101114.00;4966190;28;20050;-43
2023/12/30 03:24:15;;;;;;;4.80;2.40;;;;;;;16.89;52.72;101115.13;4961780;28;20073;-43
2023/12/30 03:26:42;;;;;;;4.20;3.17;;;;;;;16.85;53.06;101121.75;4966033;28;20130;-43
2023/12/30 03:29:08;;;;;;;4.55;2.72;;;;;;;16.86;53.21;101128.78;4968020;28;20125;-43
2023/12/30 03:31:35;;;;;;;3.35;2.42;;;;;;;16.91;53.11;101118.50;4963686;28;20077;-43
2023/12/30 03:34:02;;;;;;;4.18;2.47;;;;;;;16.97;53.07;101121.47;4965560;28;20109;-43
2023/12/30 03:36:29;;;;;;;4.57;2.15;;;;;;;17.02;53.00;101115.72;4968079;28;20077;-43
2023/12/30 03:38:55;;;;;;;6.82;2.40;;;;;;;17.06;52.84;101122.47;4962090;28;20058;-43
2023/12/30 03:41:22;;;;;;;4.43;2.60;;;;;;;17.10;52.48;101123.03;4963683;28;20055;-43
2023/12/30 03:43:49;;;;;;;3.72;2.30;;;;;;;17.15;52.32;101118.09;4963831;28;20427;-42
2023/12/30 03:46:16;;;;;;;4.93;2.55;;;;;;;17.18;52.39;101121.34;4965218;28;20063;-42
2023/12/30 03:48:43;;;;;;;3.28;2.20;;;;;;;17.21;52.55;101118.38;4965800;28;20047;-42
2023/12/30 03:51:10;;;;;;;3.55;2.30;;;;;;;17.22;51.79;101111.19;4966028;28;20051;-42
2023/12/30 03:53:36;;;;;;;4.10;2.50;;;;;;;17.21;51.96;101109.50;4964240;28;20051;-42
2023/12/30 03:56:03;;;;;;;3.40;2.00;;;;;;;17.19;52.18;101117.66;4968443;28;20059;-43
2023/12/30 03:58:30;;;;;;;4.72;2.33;;;;;;;17.17;52.01;101118.81;4967030;28;20047;-43
2023/12/30 04:00:56;;;;;;;4.30;2.30;;;;;;;17.15;52.41;101126.13;4967896;28;20086;-44
2023/12/30 04:03:23;;;;;;;2.30;1.80;;;;;;;17.13;52.75;101122.75;4970027;28;20442;-43
2023/12/30 04:05:50;;;;;;;3.45;1.98;;;;;;;17.11;51.89;101125.56;4967877;28;20066;-43
2023/12/30 04:08:16;;;;;;;3.13;2.30;;;;;;;17.10;52.12;101134.59;4968216;28;20434;-43
2023/12/30 04:10:43;;;;;;;3.25;2.20;;;;;;;17.08;52.61;101130.34;4969080;28;20134;-43
2023/12/30 04:13:10;;;;;;;4.72;2.58;;;;;;;17.06;52.44;101122.47;4965438;28;20102;-43
2023/12/30 04:15:37;;;;;;;3.95;1.60;;;;;;;17.04;51.99;101116.41;4969317;28;20527;-43
2023/12/30 04:18:04;;;;;;;3.83;2.08;;;;;;;17.02;52.87;101119.22;4968004;28;20147;-43
2023/12/30 04:20:31;;;;;;;4.32;1.95;;;;;;;17.00;52.25;101121.22;4970651;28;20047;-43
2023/12/30 04:22:58;;;;;;;3.03;2.00;;;;;;;17.00;52.39;101126.56;4968335;28;20105;-43
2023/12/30 04:25:24;;;;;;;2.97;2.25;;;;;;;17.00;52.77;101120.34;4969353;28;20094;-44
2023/12/30 04:27:51;;;;;;;4.32;2.00;;;;;;;17.00;52.81;101131.06;4968264;28;20133;-44
2023/12/30 04:30:18;;;;;;;2.55;2.00;;;;;;;17.01;52.49;101130.09;4966922;28;20055;-43
2023/12/30 04:32:44;;;;;;;3.08;2.15;;;;;;;17.00;52.26;101131.06;4970222;28;20047;-43
2023/12/30 04:35:11;;;;;;;4.40;2.30;;;;;;;16.99;52.64;101134.72;4968852;28;20158;-43
2023/12/30 04:37:38;;;;;;;4.32;1.80;;;;;;;16.99;52.56;101142.75;4969425;28;20133;-43
2023/12/30 04:40:05;;;;;;;3.80;2.10;;;;;;;16.98;52.10;101136.56;4967703;28;20054;-43
2023/12/30 04:42:32;;;;;;;3.75;1.80;;;;;;;16.98;51.89;101144.59;4970778;28;20054;-43
2023/12/30 04:44:58;;;;;;;4.80;2.22;;;;;;;16.97;51.97;101142.91;4968297;28;20053;-43
2023/12/30 04:47:25;;;;;;;3.78;2.20;;;;;;;16.93;52.54;101129.94;4967955;28;20446;-43
2023/12/30 04:49:51;;;;;;;3.42;2.17;;;;;;;16.90;52.21;101135.56;4969771;28;20085;-44
2023/12/30 04:52:18;;;;;;;2.95;1.77;;;;;;;16.89;52.43;101144.59;4967636;28;20453;-43
2023/12/30 04:54:45;;;;;;;2.47;1.80;;;;;;;16.93;52.58;101146.00;4972375;28;20106;-43
2023/12/30 04:57:11;;;;;;;3.75;1.90;;;;;;;16.99;52.60;101146.28;4967549;28;20354;-43
2023/12/30 04:59:38;;;;;;;5.15;2.13;;;;;;;17.04;52.41;101151.22;4970828;28;20093;-43
2023/12/30 05:02:05;;;;;;;2.80;1.38;;;;;;;17.07;51.99;101150.09;4968840;28;20096;-43
2023/12/30 05:04:31;;;;;;;3.88;1.90;;;;;;;17.12;52.01;101150.50;4970334;28;20054;-44
2023/12/30 05:06:58;;;;;;;2.72;1.83;;;;;;;17.14;52.13;101153.91;4967874;28;20066;-43
2023/12/30 05:09:25;;;;;;;3.33;1.50;;;;;;;17.15;52.16;101152.91;4966576;28;20043;-43
2023/12/30 05:11:51;;;;;;;3.22;1.70;;;;;;;17.15;51.72;101163.63;4971077;28;20046;-43
2023/12/30 05:14:19;;;;;;;3.88;1.80;;;;;;;17.13;51.77;101161.09;4968684;28;20054;-43
2023/12/30 05:16:46;;;;;;;3.03;1.75;;;;;;;17.11;51.97;101167.56;4968894;28;20083;-43
2023/12/30 05:19:13;;;;;;;3.60;2.20;;;;;;;17.09;51.71;101162.38;4968834;28;20138;-43
2023/12/30 05:21:40;;;;;;;2.70;1.75;;;;;;;17.07;51.92;101167.00;4969264;28;20125;-43
2023/12/30 05:24:09;;;;;;;3.75;1.80;;;;;;;17.05;52.38;101174.34;4968879;28;20068;-43
2023/12/30 05:26:35;;;;;;;3.00;1.65;;;;;;;17.04;52.57;101175.31;4970581;28;20061;-43
2023/12/30 05:29:02;;;;;;;2.30;1.48;;;;;;;17.00;51.79;101172.09;4966571;28;20051;-43
2023/12/30 05:31:29;;;;;;;2.30;1.75;;;;;;;17.00;52.17;101182.81;4966313;28;20409;-44
2023/12/30 05:33:55;;;;;;;3.33;1.80;;;;;;;16.99;52.16;101180.25;4965841;28;20059;-43
2023/12/30 05:36:22;;;;;;;2.88;1.52;;;;;;;16.97;52.37;101182.22;4966451;28;20086;-43
2023/12/30 05:38:49;;;;;;;2.97;1.65;;;;;;;16.97;51.96;101187.59;4963611;28;20102;-43
2023/12/30 05:41:15;;;;;;;4.25;2.13;;;;;;;16.95;52.04;101186.84;4968994;28;20129;-43
2023/12/30 05:43:42;;;;;;;3.45;1.63;;;;;;;16.93;52.59;101192.38;4965155;28;20486;-43
2023/12/30 05:46:15;;;;;;;2.53;1.63;;;;;;;16.92;52.53;101189.81;4966645;28;20097;-43
2023/12/30 05:48:43;;;;;;;2.95;1.83;;;;;;;16.92;52.45;101195.16;4966116;28;20046;-43
2023/12/30 05:51:10;;;;;;;3.45;1.80;;;;;;;16.91;52.25;101188.97;4960850;28;20053;-43
2023/12/30 05:53:36;;;;;;;4.40;1.63;;;;;;;16.91;52.76;101201.50;4966921;28;20101;-43
2023/12/30 05:56:03;;;;;;;3.65;1.90;;;;;;;16.89;52.95;101209.69;4967775;28;20050;-43
2023/12/30 05:58:30;;;;;;;3.15;1.50;;;;;;;16.85;52.86;101202.06;4966830;28;20047;-44
2023/12/30 06:00:57;;;;;;;3.67;2.42;;;;;;;16.83;52.74;101206.69;4966968;28;20523;-43
2023/12/30 06:03:23;;;;;;;3.95;1.67;;;;;;;16.84;52.64;101206.56;4966367;28;20051;-43
2023/12/30 06:05:50;;;;;;;1.55;1.30;;;;;;;16.88;53.09;101205.28;4969178;28;20098;-43
2023/12/30 06:08:17;;;;;;;3.20;1.48;;;;;;;16.93;52.67;101203.06;4966438;28;20054;-43
2023/12/30 06:10:49;;;;;;;3.22;1.63;;;;;;;16.99;52.32;101201.66;4965926;28;20079;-43
2023/12/30 06:13:16;;;;;;;3.20;1.85;;;;;;;17.04;52.25;101204.75;4966034;28;20046;-42
2023/12/30 06:15:48;;;;;;;3.45;1.35;;;;;;;17.07;52.59;101217.03;4966179;28;20055;-42
2023/12/30 06:18:14;;;;;;;3.03;1.60;;;;;;;17.10;52.24;101217.63;4966065;28;20047;-42
2023/12/30 06:20:44;;;;;;;2.33;1.38;;;;;;;17.11;51.77;101219.31;4965880;28;20138;-43
2023/12/30 06:23:11;;;;;;;2.40;1.20;;;;;;;17.12;51.59;101218.31;4968139;28;20235;-42
2023/12/30 06:25:39;;;;;;;2.50;1.35;;;;;;;17.12;52.47;101217.47;4966349;28;20054;-42
2023/12/30 06:28:05;;;;;;;2.08;1.42;;;;;;;17.12;52.18;101220.16;4966512;28;20320;-42
2023/12/30 06:30:32;;;;;;;3.00;1.42;;;;;;;17.11;52.31;101215.78;4968726;28;20057;-43
2023/12/30 06:33:06;;;;;;;3.53;1.60;;;;;;;17.12;51.79;101225.50;4967275;28;20502;-43
2023/12/30 06:35:34;;;;;;;3.85;1.65;;;;;;;17.12;51.78;101225.50;4967099;28;20074;-43
2023/12/30 06:38:01;;;;;;;2.30;1.23;;;;;;;17.09;51.52;101213.25;4966305;28;20452;-43
2023/12/30 06:40:28;;;;;;;2.95;1.73;;;;;;;17.08;51.80;101229.44;4967961;28;20161;-42
2023/12/30 06:42:54;;;;;;;3.10;1.80;;;;;;;17.06;51.66;101218.88;4966843;28;20439;-42
2023/12/30 06:45:21;;;;;;;1.70;1.08;;;;;;;17.05;52.14;101227.06;4966306;28;20061;-43
2023/12/30 06:47:48;;;;;;;3.25;1.67;;;;;;;17.01;52.06;101221.97;4965597;28;20058;-43
2023/12/30 06:50:15;;;;;;;3.78;1.40;;;;;;;17.01;52.14;101221.97;4967612;28;20406;-43
2023/12/30 06:52:45;;;;;;;1.83;1.13;;;;;;;17.00;51.61;101225.66;4966520;28;20170;-42
2023/12/30 06:55:13;;;;;;;2.28;1.13;;;;;;;17.00;51.42;101227.44;4964907;28;20050;-42
2023/12/30 06:57:51;;;;;;;2.60;1.42;;;;;;;16.98;51.56;101221.41;4969524;28;20086;-43
2023/12/30 07:00:18;;;;;;;2.35;1.40;;;;;;;16.97;51.54;101228.59;4966846;28;20054;-43
2023/12/30 07:02:45;;;;;;;3.97;1.48;;;;;;;16.97;51.70;101222.41;4969088;28;20061;-43
2023/12/30 07:05:11;;;;;;;3.15;1.20;;;;;;;16.95;51.91;101211.81;4966952;28;20054;-42
2023/12/30 07:07:38;;;;;;;2.25;1.25;;;;;;;16.92;51.96;101205.88;4965714;28;20058;-43
2023/12/30 07:10:05;;;;;;;3.45;1.40;;;;;;;16.92;51.12;101211.22;4964805;28;20050;-43
2023/12/30 07:12:32;;;;;;;2.00;1.30;;;;;;;16.97;51.22;101203.66;4966085;28;20069;-43
2023/12/30 07:14:59;;;;;;;4.97;1.70;;;;;;;17.00;51.74;101206.03;4964500;28;20137;-43
2023/12/30 07:17:26;;;;;;;2.97;1.42;;;;;;;17.02;51.13;101212.09;4966296;28;20086;-43
2023/12/30 07:19:53;;;;;;;3.97;1.30;;;;;;;17.05;50.88;101222.56;4967265;28;20046;-44
2023/12/30 07:22:19;;;;;;;4.35;1.33;;;;;;;17.08;50.77;101227.59;4964529;28;20090;-43
2023/12/30 07:24:49;;;;;;;2.72;1.25;;;;;;;17.10;50.71;101241.72;4963979;28;20043;-43
2023/12/30 07:27:16;;;;;;;4.20;1.70;;;;;;;17.10;51.10;101239.03;4963683;28;20468;-43
2023/12/30 07:29:42;;;;;;;2.53;1.35;;;;;;;17.11;50.98;101246.09;4965251;28;20054;-43
2023/12/30 07:32:09;;;;;;;3.28;1.30;;;;;;;17.10;50.90;101246.25;4966422;28;20442;-43
2023/12/30 07:34:36;;;;;;;2.67;1.20;;;;;;;17.07;51.03;101247.34;4964422;28;20413;-42
2023/12/30 07:37:04;;;;;;;2.03;1.17;;;;;;;17.06;50.67;101259.06;4965557;28;20055;-43
2023/12/30 07:39:32;;;;;;;1.98;1.23;;;;;;;17.03;51.40;101262.00;4965967;28;20323;-43
2023/12/30 07:41:59;;;;;;;3.92;1.50;;;;;;;17.01;50.90;101259.47;4968484;28;20355;-43
2023/12/30 07:44:28;;;;;;;4.13;1.42;;;;;;;17.01;51.38;101261.31;4969316;28;20055;-44
2023/12/30 07:46:55;;;;;;;4.57;1.58;;;;;;;17.00;50.80;101265.81;4962238;28;20078;-43
2023/12/30 07:49:21;;;;;;;4.57;1.42;;;;;;;17.00;50.99;101267.63;4962168;28;20138;-42
2023/12/30 07:51:48;;;;;;;1.42;1.10;;;;;;;16.99;50.86;101276.63;4963942;28;20454;-43
2023/12/30 07:54:15;;;;;;;3.03;1.05;;;;;;;16.98;51.38;101274.97;4963974;28;20051;-43
2023/12/30 07:56:42;;;;;;;2.97;1.42;;;;;;;16.99;51.49;101282.00;4967038;28;20078;-43
2023/12/30 07:59:10;;;;;;;5.28;2.08;;;;;;;16.97;50.98;101273.28;4966232;28;20101;-43
2023/12/30 08:01:44;;;;;;;2.92;1.17;;;;;;;16.95;51.09;101278.75;4967607;28;20059;-43
2023/12/30 08:04:11;;;;;;;3.25;1.55;;;;;;;16.94;50.71;101277.06;4962410;28;20082;-43
2023/12/30 08:06:40;;;;;;;2.80;1.20;;;;;;;16.94;50.71;101281.56;4968010;28;20093;-43
2023/12/30 08:09:07;;;;;;;2.50;1.15;;;;;;;16.93;51.41;101283.41;4968080;28;20307;-43
2023/12/30 08:11:35;;;;;;;2.08;1.10;;;;;;;16.91;51.60;101285.34;4968492;28;20046;-42
2023/12/30 08:14:20;;;;;;;4.70;1.70;;;;;;;16.91;51.43;101289.88;4962911;28;20059;-43
2023/12/30 08:16:47;;;;;;;6.55;1.55;;;;;;;16.89;51.38;101281.13;4970456;28;20129;-43
2023/12/30 08:19:13;;;;;;;3.60;1.27;;;;;;;16.88;50.79;101280.25;4967718;28;20505;-42
2023/12/30 08:21:40;;;;;;;3.05;1.42;;;;;;;16.88;51.10;101284.78;4966981;28;20058;-42
2023/12/30 08:24:07;;;;;;;4.97;1.58;;;;;;;16.86;51.33;101286.75;4969108;28;20146;-43
2023/12/30 08:26:33;;;;;;;2.67;1.60;;;;;;;16.86;50.77;101286.75;4964320;28;20062;-43
2023/12/30 08:29:00;;;;;;;2.45;1.42;;;;;;;16.84;51.17;101292.22;4965191;28;20493;-43
2023/12/30 08:31:27;;;;;;;4.53;1.98;;;;;;;16.83;51.47;101298.56;4963661;28;20051;-43
2023/12/30 08:33:53;;;;;;;6.32;2.80;;;;;;;16.83;50.92;101303.91;4970195;28;20078;-43
2023/12/30 08:36:21;;;;;;;4.53;2.03;;;;;;;16.83;51.39;101308.44;4962116;28;20055;-43
2023/12/30 08:38:48;;;;;;;10.27;2.90;;;;;;;16.83;50.81;101309.28;4961399;28;20047;-43
2023/12/30 08:41:14;;;;;;;4.32;2.35;;;;;;;16.82;50.82;101312.94;4967517;28;20347;-43
2023/12/30 08:43:42;;;;;;;5.40;2.65;;;;;;;16.80;51.04;101311.38;4967840;28;20085;-43
2023/12/30 08:46:10;;;;;;;6.05;2.72;;;;;;;16.78;51.42;101317.72;4971750;28;20101;-43
2023/12/30 08:48:37;;;;;;;12.75;3.63;;;;;;;16.76;51.52;101319.69;4967525;28;20043;-43
2023/12/30 08:51:04;;;;;;;8.95;3.30;;;;;;;16.73;50.88;101306.56;4969452;28;20074;-43
2023/12/30 08:53:30;;;;;;;5.78;2.97;;;;;;;16.70;51.08;101312.16;4964240;28;20051;-42
2023/12/30 08:55:57;;;;;;;9.98;3.17;;;;;;;16.66;50.80;101316.06;4967863;28;20066;-42
2023/12/30 08:58:24;;;;;;;8.52;3.53;;;;;;;16.61;51.26;101317.47;4966539;28;20058;-42
2023/12/30 09:00:52;;;;;;;9.00;3.28;;;;;;;16.58;50.50;101321.25;4967510;28;20473;-43
2023/12/30 09:03:19;;;;;;;5.57;3.10;;;;;;;16.52;51.50;101319.09;4964392;28;20146;-43
2023/12/30 09:05:46;;;;;;;8.68;3.72;;;;;;;16.47;51.82;101316.81;4964920;28;20708;-43
2023/12/30 09:08:13;;;;;;;7.35;3.72;;;;;;;16.44;51.35;101313.53;4961648;28;20062;-43
2023/12/30 09:10:40;;;;;;;11.13;4.97;;;;;;;16.40;51.93;101320.13;4961238;28;20051;-43
2023/12/30 09:13:06;;;;;;;10.80;5.30;;;;;;;16.37;52.21;101323.09;4967290;28;20560;-43
2023/12/30 09:15:34;;;;;;;9.70;5.10;;;;;;;16.35;52.50;101319.69;4962724;28;20090;-43
2023/12/30 09:18:00;;;;;;;9.80;5.30;;;;;;;16.32;52.11;101325.28;4965244;28;20094;-44
2023/12/30 09:20:28;;;;;;;14.10;5.85;;;;;;;16.29;52.43;101326.41;4959826;28;20062;-43
2023/12/30 09:22:54;;;;;;;10.07;5.45;;;;;;;16.27;51.29;101331.88;4965387;28;20101;-42
2023/12/30 09:25:21;;;;;;;10.10;5.80;;;;;;;16.26;52.00;101334.69;4960896;28;20078;-43
2023/12/30 09:27:47;;;;;;;10.35;5.50;;;;;;;16.21;52.61;101336.94;4964479;28;20355;-43
2023/12/30 09:30:17;;;;;;;10.45;5.53;;;;;;;16.18;51.96;101340.69;4964847;28;20047;-43
2023/12/30 09:32:43;;;;;;;14.27;6.75;;;;;;;16.15;53.12;101343.63;4964631;28;20133;-43
2023/12/30 09:35:10;;;;;;;16.63;7.38;;;;;;;16.12;54.14;101343.03;4964505;28;20054;-42
2023/12/30 09:37:37;;;;;;;17.88;7.60;;;;;;;16.10;55.11;101345.84;4963190;28;20051;-43
2023/12/30 09:40:04;;;;;;;18.13;8.80;;;;;;;16.09;56.28;101349.50;4966494;28;20113;-43
2023/12/30 09:42:31;;;;;;;19.95;8.57;;;;;;;16.06;57.74;101347.06;4965361;28;20439;-42
2023/12/30 09:45:00;;;;;;;21.88;9.65;;;;;;;16.05;57.29;101345.38;4963967;28;20055;-43
2023/12/30 09:47:28;;;;;;;18.60;6.90;;;;;;;16.03;56.27;101342.81;4963976;28;20125;-43
2023/12/30 09:49:55;;;;;;;20.27;8.55;;;;;;;16.00;56.81;101326.19;4963563;28;20342;-43
2023/12/30 09:52:24;;;;;;;27.25;13.15;;;;;;;16.00;56.79;101337.75;4962066;28;20109;-43
2023/12/30 09:54:50;;;;;;;26.00;12.18;;;;;;;15.98;57.13;101341.53;4965337;28;20066;-43
2023/12/30 09:57:17;;;;;;;27.13;11.45;;;;;;;15.98;57.22;101349.53;4965424;28;20082;-43
2023/12/30 09:59:46;;;;;;;21.08;11.05;;;;;;;15.97;57.10;101346.03;4967567;28;20434;-43
2023/12/30 10:02:14;;;;;;;22.65;12.05;;;;;;;15.98;56.69;101350.38;4963054;28;20369;-44
2023/12/30 10:04:40;;;;;;;29.77;11.32;;;;;;;15.97;56.62;101343.34;4961307;28;20047;-44
2023/12/30 10:07:07;;;;;;;25.13;12.52;;;;;;;15.98;56.92;101354.88;4958352;28;20426;-44
2023/12/30 10:09:34;;;;;;;30.00;12.10;;;;;;;15.97;56.95;101354.03;4964710;28;20423;-44
2023/12/30 10:12:02;;;;;;;21.42;11.13;;;;;;;15.97;56.27;101356.72;4964256;28;20042;-43
2023/12/30 10:14:28;;;;;;;20.15;10.48;;;;;;;15.97;56.08;101354.03;4966157;28;20050;-43
2023/12/30 10:16:55;;;;;;;25.55;12.55;;;;;;;15.96;56.04;101355.03;4964318;28;20061;-43
2023/12/30 10:19:22;;;;;;;29.48;12.60;;;;;;;15.96;56.55;101351.47;4963348;28;20481;-44
2023/12/30 10:21:49;;;;;;;26.70;10.85;;;;;;;15.96;55.91;101359.50;4966514;28;20355;-43
2023/12/30 10:24:16;;;;;;;25.08;11.77;;;;;;;15.94;55.58;101353.44;4963387;28;20046;-44
2023/12/30 10:26:43;;;;;;;23.92;11.23;;;;;;;15.94;55.70;101350.78;4968335;28;20047;-44
2023/12/30 10:29:10;;;;;;;27.92;12.35;;;;;;;15.93;55.67;101341.06;4962462;28;20054;-43
2023/12/30 10:31:37;;;;;;;21.92;10.90;;;;;;;15.92;55.77;101334.00;4966603;28;20046;-43
2023/12/30 10:34:05;;;;;;;23.23;10.68;;;;;;;15.92;56.03;101334.00;4963741;28;20051;-43
2023/12/30 10:36:32;;;;;;;24.33;10.63;;;;;;;15.90;55.37;101333.28;4964230;28;20065;-44
2023/12/30 10:39:00;;;;;;;21.75;11.35;;;;;;;15.90;56.05;101336.81;4966009;28;20704;-43
2023/12/30 10:41:27;;;;;;;19.38;9.80;;;;;;;15.90;56.13;101331.47;4960047;28;20057;-43
2023/12/30 10:43:54;;;;;;;17.40;9.63;;;;;;;15.89;55.55;101316.41;4963742;28;20446;-44
2023/12/30 10:46:25;;;;;;;20.55;10.00;;;;;;;15.90;56.00;101322.59;4963896;28;20109;-43
2023/12/30 10:49:01;;;;;;;22.23;10.65;;;;;;;15.89;55.18;101323.59;4965522;28;20486;-43
2023/12/30 10:51:30;;;;;;;23.55;9.95;;;;;;;15.88;55.71;101320.06;4960942;28;20151;-43
2023/12/30 10:54:07;;;;;;;20.35;9.20;;;;;;;15.87;55.01;101315.66;4965073;28;20117;-43
2023/12/30 10:56:40;;;;;;;18.75;9.15;;;;;;;15.87;55.87;101315.66;4959280;28;20339;-43
2023/12/30 10:59:07;;;;;;;17.48;9.48;;;;;;;15.87;55.92;101314.81;4964873;28;20065;-43
2023/12/30 11:01:36;;;;;;;21.15;9.77;;;;;;;15.88;55.01;101317.38;4964279;28;20046;-43
2023/12/30 11:04:11;;;;;;;16.40;8.50;;;;;;;15.89;54.87;101315.56;4959512;28;20073;-43
2023/12/30 11:06:49;;;;;;;22.83;9.80;;;;;;;15.87;55.41;101313.00;4963033;28;20051;-43
2023/12/30 11:09:18;;;;;;;17.77;9.35;;;;;;;15.90;54.75;101314.56;4962294;28;20363;-43
2023/12/30 11:11:53;;;;;;;16.73;8.57;;;;;;;15.90;55.11;101315.44;4968791;28;20058;-43
2023/12/30 11:14:21;;;;;;;16.02;8.35;;;;;;;15.93;55.45;101308.97;4963542;28;20066;-43
2023/12/30 11:16:50;;;;;;;17.08;8.90;;;;;;;15.94;54.56;101308.00;4966167;28;20121;-43
2023/12/30 11:19:30;;;;;;;12.50;7.60;;;;;;;15.94;55.04;101300.81;4967615;28;20106;-43
2023/12/30 11:22:04;;;;;;;17.98;8.32;;;;;;;15.97;55.16;101299.72;4967913;28;20055;-43